sensor_id;sensor_type;location;lat;lon;timestamp;temperature;humidity
47532;DHT22;33273;52.254;7.988;2023-07-08T00:00:38;16.90;68.00
47532;DHT22;33273;52.254;7.988;2023-07-08T00:03:04;16.70;69.10
47532;DHT22;33273;52.254;7.988;2023-07-08T00:05:30;16.70;70.60
47532;DHT22;33273;52.254;7.988;2023-07-08T00:07:56;16.70;73.30
47532;DHT22;33273;52.254;7.988;2023-07-08T00:10:22;16.70;75.30
47532;DHT22;33273;52.254;7.988;2023-07-08T00:12:49;16.70;75.20
47532;DHT22;33273;52.254;7.988;2023-07-08T00:15:16;16.80;74.20
47532;DHT22;33273;52.254;7.988;2023-07-08T00:17:42;16.80;73.40
47532;DHT22;33273;52.254;7.988;2023-07-08T00:20:19;16.80;73.80
47532;DHT22;33273;52.254;7.988;2023-07-08T00:22:46;16.70;74.80
47532;DHT22;33273;52.254;7.988;2023-07-08T00:25:18;16.70;75.80
47532;DHT22;33273;52.254;7.988;2023-07-08T00:27:47;16.60;75.30
47532;DHT22;33273;52.254;7.988;2023-07-08T00:32:42;16.50;75.00
47532;DHT22;33273;52.254;7.988;2023-07-08T00:35:07;16.50;75.00
47532;DHT22;33273;52.254;7.988;2023-07-08T00:37:33;16.60;73.90
47532;DHT22;33273;52.254;7.988;2023-07-08T00:40:00;16.60;72.70
47532;DHT22;33273;52.254;7.988;2023-07-08T00:42:26;16.60;72.70
47532;DHT22;33273;52.254;7.988;2023-07-08T00:44:52;16.70;71.80
47532;DHT22;33273;52.254;7.988;2023-07-08T00:47:18;16.80;68.40
47532;DHT22;33273;52.254;7.988;2023-07-08T00:49:45;16.90;67.70
47532;DHT22;33273;52.254;7.988;2023-07-08T00:52:24;16.80;68.90
47532;DHT22;33273;52.254;7.988;2023-07-08T00:55:01;16.90;69.40
47532;DHT22;33273;52.254;7.988;2023-07-08T00:57:31;16.80;70.40
47532;DHT22;33273;52.254;7.988;2023-07-08T01:00:09;16.70;70.60
47532;DHT22;33273;52.254;7.988;2023-07-08T01:02:45;16.70;70.60
47532;DHT22;33273;52.254;7.988;2023-07-08T01:05:14;16.70;70.70
47532;DHT22;33273;52.254;7.988;2023-07-08T01:07:41;16.70;70.70
47532;DHT22;33273;52.254;7.988;2023-07-08T01:10:09;16.60;70.00
47532;DHT22;33273;52.254;7.988;2023-07-08T01:12:42;16.50;69.60
47532;DHT22;33273;52.254;7.988;2023-07-08T01:15:08;16.50;70.30
47532;DHT22;33273;52.254;7.988;2023-07-08T01:17:35;16.40;71.20
47532;DHT22;33273;52.254;7.988;2023-07-08T01:20:01;16.50;70.40
47532;DHT22;33273;52.254;7.988;2023-07-08T01:22:31;16.40;70.70
47532;DHT22;33273;52.254;7.988;2023-07-08T01:24:58;16.30;72.10
47532;DHT22;33273;52.254;7.988;2023-07-08T01:27:30;16.20;72.50
47532;DHT22;33273;52.254;7.988;2023-07-08T01:29:59;16.10;74.20
47532;DHT22;33273;52.254;7.988;2023-07-08T01:32:25;16.10;74.10
47532;DHT22;33273;52.254;7.988;2023-07-08T01:34:51;16.10;73.40
47532;DHT22;33273;52.254;7.988;2023-07-08T01:37:28;16.10;73.00
47532;DHT22;33273;52.254;7.988;2023-07-08T01:39:55;16.00;73.00
47532;DHT22;33273;52.254;7.988;2023-07-08T01:42:21;16.10;73.30
47532;DHT22;33273;52.254;7.988;2023-07-08T01:44:47;16.00;73.70
47532;DHT22;33273;52.254;7.988;2023-07-08T01:47:19;16.10;74.20
47532;DHT22;33273;52.254;7.988;2023-07-08T01:49:46;16.20;72.60
47532;DHT22;33273;52.254;7.988;2023-07-08T01:52:13;16.20;71.50
47532;DHT22;33273;52.254;7.988;2023-07-08T01:54:40;16.30;71.80
47532;DHT22;33273;52.254;7.988;2023-07-08T01:57:06;16.20;72.50
47532;DHT22;33273;52.254;7.988;2023-07-08T01:59:32;16.20;72.20
47532;DHT22;33273;52.254;7.988;2023-07-08T02:01:58;16.30;71.40
47532;DHT22;33273;52.254;7.988;2023-07-08T02:04:24;16.30;70.00
47532;DHT22;33273;52.254;7.988;2023-07-08T02:06:54;16.30;68.90
47532;DHT22;33273;52.254;7.988;2023-07-08T02:09:20;16.30;69.10
47532;DHT22;33273;52.254;7.988;2023-07-08T02:11:45;16.30;70.00
47532;DHT22;33273;52.254;7.988;2023-07-08T02:14:11;16.10;70.80
47532;DHT22;33273;52.254;7.988;2023-07-08T02:16:37;16.00;71.10
47532;DHT22;33273;52.254;7.988;2023-07-08T02:19:03;15.80;72.90
47532;DHT22;33273;52.254;7.988;2023-07-08T02:21:30;15.90;72.70
47532;DHT22;33273;52.254;7.988;2023-07-08T02:23:56;15.80;72.30
47532;DHT22;33273;52.254;7.988;2023-07-08T02:26:22;15.80;72.70
47532;DHT22;33273;52.254;7.988;2023-07-08T02:28:48;15.80;71.30
47532;DHT22;33273;52.254;7.988;2023-07-08T02:31:14;15.80;70.10
47532;DHT22;33273;52.254;7.988;2023-07-08T02:33:41;15.80;70.00
47532;DHT22;33273;52.254;7.988;2023-07-08T02:36:06;15.70;69.80
47532;DHT22;33273;52.254;7.988;2023-07-08T02:38:32;15.80;70.50
47532;DHT22;33273;52.254;7.988;2023-07-08T02:40:59;15.70;69.30
47532;DHT22;33273;52.254;7.988;2023-07-08T02:43:25;15.70;70.00
47532;DHT22;33273;52.254;7.988;2023-07-08T02:45:51;15.70;70.50
47532;DHT22;33273;52.254;7.988;2023-07-08T02:48:17;15.70;70.80
47532;DHT22;33273;52.254;7.988;2023-07-08T02:50:43;15.70;69.80
47532;DHT22;33273;52.254;7.988;2023-07-08T02:53:09;15.70;71.20
47532;DHT22;33273;52.254;7.988;2023-07-08T02:55:34;15.60;71.70
47532;DHT22;33273;52.254;7.988;2023-07-08T02:58:00;15.60;73.20
47532;DHT22;33273;52.254;7.988;2023-07-08T03:00:26;15.50;71.60
47532;DHT22;33273;52.254;7.988;2023-07-08T03:02:52;15.50;72.30
47532;DHT22;33273;52.254;7.988;2023-07-08T03:05:18;15.50;72.20
47532;DHT22;33273;52.254;7.988;2023-07-08T03:07:44;15.50;73.20
47532;DHT22;33273;52.254;7.988;2023-07-08T03:10:10;15.50;72.20
47532;DHT22;33273;52.254;7.988;2023-07-08T03:12:36;15.50;72.20
47532;DHT22;33273;52.254;7.988;2023-07-08T03:15:02;15.40;71.10
47532;DHT22;33273;52.254;7.988;2023-07-08T03:17:28;15.40;71.50
47532;DHT22;33273;52.254;7.988;2023-07-08T03:19:54;15.40;70.10
47532;DHT22;33273;52.254;7.988;2023-07-08T03:22:20;15.40;69.20
47532;DHT22;33273;52.254;7.988;2023-07-08T03:24:46;15.50;69.30
47532;DHT22;33273;52.254;7.988;2023-07-08T03:27:15;15.50;68.40
47532;DHT22;33273;52.254;7.988;2023-07-08T03:29:42;15.50;68.20
47532;DHT22;33273;52.254;7.988;2023-07-08T03:32:09;15.60;68.00
47532;DHT22;33273;52.254;7.988;2023-07-08T03:34:35;15.60;67.80
47532;DHT22;33273;52.254;7.988;2023-07-08T03:37:01;15.60;67.40
47532;DHT22;33273;52.254;7.988;2023-07-08T03:39:28;15.60;67.90
47532;DHT22;33273;52.254;7.988;2023-07-08T03:41:53;15.60;67.80
47532;DHT22;33273;52.254;7.988;2023-07-08T03:44:19;15.60;69.30
47532;DHT22;33273;52.254;7.988;2023-07-08T03:46:46;15.60;69.10
47532;DHT22;33273;52.254;7.988;2023-07-08T03:49:15;15.60;70.00
47532;DHT22;33273;52.254;7.988;2023-07-08T03:51:41;15.70;69.60
47532;DHT22;33273;52.254;7.988;2023-07-08T03:54:10;15.70;69.80
47532;DHT22;33273;52.254;7.988;2023-07-08T03:56:38;15.70;69.90
47532;DHT22;33273;52.254;7.988;2023-07-08T03:59:04;15.70;69.20
47532;DHT22;33273;52.254;7.988;2023-07-08T04:01:30;15.80;67.80
47532;DHT22;33273;52.254;7.988;2023-07-08T04:03:57;15.80;67.80
47532;DHT22;33273;52.254;7.988;2023-07-08T04:06:23;15.80;67.40
47532;DHT22;33273;52.254;7.988;2023-07-08T04:08:49;16.00;66.10
47532;DHT22;33273;52.254;7.988;2023-07-08T04:11:19;16.10;65.60
47532;DHT22;33273;52.254;7.988;2023-07-08T04:13:45;16.10;65.40
47532;DHT22;33273;52.254;7.988;2023-07-08T04:19:02;16.30;65.00
47532;DHT22;33273;52.254;7.988;2023-07-08T04:21:29;16.40;64.20
47532;DHT22;33273;52.254;7.988;2023-07-08T04:23:55;16.60;64.50
47532;DHT22;33273;52.254;7.988;2023-07-08T04:26:21;16.70;67.00
47532;DHT22;33273;52.254;7.988;2023-07-08T04:28:47;17.00;65.20
47532;DHT22;33273;52.254;7.988;2023-07-08T04:31:13;17.30;63.10
47532;DHT22;33273;52.254;7.988;2023-07-08T04:33:38;17.40;59.10
47532;DHT22;33273;52.254;7.988;2023-07-08T04:36:09;17.60;58.80
47532;DHT22;33273;52.254;7.988;2023-07-08T04:38:38;17.70;56.90
47532;DHT22;33273;52.254;7.988;2023-07-08T04:41:04;17.90;58.00
47532;DHT22;33273;52.254;7.988;2023-07-08T04:43:30;18.30;57.10
47532;DHT22;33273;52.254;7.988;2023-07-08T04:45:56;18.70;53.50
47532;DHT22;33273;52.254;7.988;2023-07-08T04:48:22;18.80;54.10
47532;DHT22;33273;52.254;7.988;2023-07-08T04:50:51;19.50;51.80
47532;DHT22;33273;52.254;7.988;2023-07-08T04:53:17;19.80;47.70
47532;DHT22;33273;52.254;7.988;2023-07-08T04:55:55;20.00;46.20
47532;DHT22;33273;52.254;7.988;2023-07-08T04:58:21;20.50;47.50
47532;DHT22;33273;52.254;7.988;2023-07-08T05:00:48;20.80;46.10
47532;DHT22;33273;52.254;7.988;2023-07-08T05:03:14;20.70;43.70
47532;DHT22;33273;52.254;7.988;2023-07-08T05:05:40;20.80;44.20
47532;DHT22;33273;52.254;7.988;2023-07-08T05:08:06;21.10;41.80
47532;DHT22;33273;52.254;7.988;2023-07-08T05:10:31;21.10;43.00
47532;DHT22;33273;52.254;7.988;2023-07-08T05:12:57;21.20;40.80
47532;DHT22;33273;52.254;7.988;2023-07-08T05:15:24;21.20;39.90
47532;DHT22;33273;52.254;7.988;2023-07-08T05:17:51;21.30;41.00
47532;DHT22;33273;52.254;7.988;2023-07-08T05:20:17;21.30;40.00
47532;DHT22;33273;52.254;7.988;2023-07-08T05:22:44;21.80;39.90
47532;DHT22;33273;52.254;7.988;2023-07-08T05:25:12;21.80;39.00
47532;DHT22;33273;52.254;7.988;2023-07-08T05:27:38;21.90;38.40
47532;DHT22;33273;52.254;7.988;2023-07-08T05:30:05;22.00;37.80
47532;DHT22;33273;52.254;7.988;2023-07-08T05:32:32;22.00;39.00
47532;DHT22;33273;52.254;7.988;2023-07-08T05:34:58;22.30;39.00
47532;DHT22;33273;52.254;7.988;2023-07-08T05:37:24;22.30;37.00
47532;DHT22;33273;52.254;7.988;2023-07-08T05:39:54;22.90;37.50
47532;DHT22;33273;52.254;7.988;2023-07-08T05:42:21;23.10;35.20
47532;DHT22;33273;52.254;7.988;2023-07-08T05:44:47;23.30;34.70
47532;DHT22;33273;52.254;7.988;2023-07-08T05:47:13;24.00;34.80
47532;DHT22;33273;52.254;7.988;2023-07-08T05:49:39;24.80;32.90
47532;DHT22;33273;52.254;7.988;2023-07-08T05:52:05;24.40;31.30
47532;DHT22;33273;52.254;7.988;2023-07-08T05:54:41;24.70;31.90
47532;DHT22;33273;52.254;7.988;2023-07-08T05:57:09;24.50;31.60
47532;DHT22;33273;52.254;7.988;2023-07-08T05:59:36;24.80;31.20
47532;DHT22;33273;52.254;7.988;2023-07-08T06:02:05;25.10;30.60
47532;DHT22;33273;52.254;7.988;2023-07-08T06:04:31;25.70;29.80
47532;DHT22;33273;52.254;7.988;2023-07-08T06:06:57;25.80;28.50
47532;DHT22;33273;52.254;7.988;2023-07-08T06:09:23;25.60;29.10
47532;DHT22;33273;52.254;7.988;2023-07-08T06:11:49;25.60;28.90
47532;DHT22;33273;52.254;7.988;2023-07-08T06:14:15;25.30;29.20
47532;DHT22;33273;52.254;7.988;2023-07-08T06:16:41;25.10;30.20
47532;DHT22;33273;52.254;7.988;2023-07-08T06:19:07;25.00;30.20
47532;DHT22;33273;52.254;7.988;2023-07-08T06:21:33;25.30;30.50
47532;DHT22;33273;52.254;7.988;2023-07-08T06:23:59;26.00;29.20
47532;DHT22;33273;52.254;7.988;2023-07-08T06:26:25;26.20;29.20
47532;DHT22;33273;52.254;7.988;2023-07-08T06:28:51;26.40;29.20
47532;DHT22;33273;52.254;7.988;2023-07-08T06:31:17;26.20;28.60
47532;DHT22;33273;52.254;7.988;2023-07-08T06:33:43;26.80;28.90
47532;DHT22;33273;52.254;7.988;2023-07-08T06:36:08;27.30;28.30
47532;DHT22;33273;52.254;7.988;2023-07-08T06:38:34;27.40;27.50
47532;DHT22;33273;52.254;7.988;2023-07-08T06:41:00;28.00;27.20
47532;DHT22;33273;52.254;7.988;2023-07-08T06:43:26;27.70;26.50
47532;DHT22;33273;52.254;7.988;2023-07-08T06:46:03;28.20;26.80
47532;DHT22;33273;52.254;7.988;2023-07-08T06:48:30;28.90;26.30
47532;DHT22;33273;52.254;7.988;2023-07-08T06:50:56;28.60;25.40
47532;DHT22;33273;52.254;7.988;2023-07-08T06:53:22;27.60;25.20
47532;DHT22;33273;52.254;7.988;2023-07-08T06:55:49;27.30;26.30
47532;DHT22;33273;52.254;7.988;2023-07-08T06:58:15;27.00;27.80
47532;DHT22;33273;52.254;7.988;2023-07-08T07:00:46;27.00;27.70
47532;DHT22;33273;52.254;7.988;2023-07-08T07:03:12;27.80;28.10
47532;DHT22;33273;52.254;7.988;2023-07-08T07:05:39;27.50;26.60
47532;DHT22;33273;52.254;7.988;2023-07-08T07:08:06;27.70;28.00
47532;DHT22;33273;52.254;7.988;2023-07-08T07:10:33;26.90;26.50
47532;DHT22;33273;52.254;7.988;2023-07-08T07:13:00;26.70;27.90
47532;DHT22;33273;52.254;7.988;2023-07-08T07:15:28;26.10;27.70
47532;DHT22;33273;52.254;7.988;2023-07-08T07:17:56;25.90;28.40
47532;DHT22;33273;52.254;7.988;2023-07-08T07:20:22;25.80;28.00
47532;DHT22;33273;52.254;7.988;2023-07-08T07:22:49;25.70;29.30
47532;DHT22;33273;52.254;7.988;2023-07-08T07:25:17;26.10;29.80
47532;DHT22;33273;52.254;7.988;2023-07-08T07:27:43;26.20;28.40
47532;DHT22;33273;52.254;7.988;2023-07-08T07:30:09;26.20;28.50
47532;DHT22;33273;52.254;7.988;2023-07-08T07:32:41;26.10;28.50
47532;DHT22;33273;52.254;7.988;2023-07-08T07:37:58;26.20;28.90
47532;DHT22;33273;52.254;7.988;2023-07-08T07:40:24;26.20;28.60
47532;DHT22;33273;52.254;7.988;2023-07-08T07:42:50;26.00;29.20
47532;DHT22;33273;52.254;7.988;2023-07-08T07:45:16;26.20;29.20
47532;DHT22;33273;52.254;7.988;2023-07-08T07:47:42;26.20;29.60
47532;DHT22;33273;52.254;7.988;2023-07-08T07:50:09;26.30;28.00
47532;DHT22;33273;52.254;7.988;2023-07-08T07:52:37;26.40;28.80
47532;DHT22;33273;52.254;7.988;2023-07-08T07:55:03;26.50;28.60
47532;DHT22;33273;52.254;7.988;2023-07-08T07:57:29;26.70;28.40
47532;DHT22;33273;52.254;7.988;2023-07-08T07:59:55;27.10;27.70
47532;DHT22;33273;52.254;7.988;2023-07-08T08:02:21;26.50;28.30
47532;DHT22;33273;52.254;7.988;2023-07-08T08:04:47;27.00;28.70
47532;DHT22;33273;52.254;7.988;2023-07-08T08:07:13;27.40;28.40
47532;DHT22;33273;52.254;7.988;2023-07-08T08:09:39;27.20;28.40
47532;DHT22;33273;52.254;7.988;2023-07-08T08:12:09;27.30;27.40
47532;DHT22;33273;52.254;7.988;2023-07-08T08:14:36;27.20;27.30
47532;DHT22;33273;52.254;7.988;2023-07-08T08:17:02;26.90;27.80
47532;DHT22;33273;52.254;7.988;2023-07-08T08:19:28;26.70;27.60
47532;DHT22;33273;52.254;7.988;2023-07-08T08:21:54;26.70;27.90
47532;DHT22;33273;52.254;7.988;2023-07-08T08:24:20;26.70;28.20
47532;DHT22;33273;52.254;7.988;2023-07-08T08:26:46;26.80;28.80
47532;DHT22;33273;52.254;7.988;2023-07-08T08:29:11;26.90;28.10
47532;DHT22;33273;52.254;7.988;2023-07-08T08:31:37;26.90;28.00
47532;DHT22;33273;52.254;7.988;2023-07-08T08:34:03;27.00;28.00
47532;DHT22;33273;52.254;7.988;2023-07-08T08:36:29;27.20;28.30
47532;DHT22;33273;52.254;7.988;2023-07-08T08:38:57;27.30;27.40
47532;DHT22;33273;52.254;7.988;2023-07-08T08:41:30;27.30;27.70
47532;DHT22;33273;52.254;7.988;2023-07-08T08:43:57;27.30;27.30
47532;DHT22;33273;52.254;7.988;2023-07-08T08:49:39;27.20;28.10
47532;DHT22;33273;52.254;7.988;2023-07-08T08:52:08;27.20;27.90
47532;DHT22;33273;52.254;7.988;2023-07-08T08:54:35;27.20;27.30
47532;DHT22;33273;52.254;7.988;2023-07-08T09:00:04;27.40;28.00
47532;DHT22;33273;52.254;7.988;2023-07-08T09:02:57;27.60;27.70
47532;DHT22;33273;52.254;7.988;2023-07-08T09:05:26;27.70;27.00
47532;DHT22;33273;52.254;7.988;2023-07-08T09:10:42;27.90;26.70
47532;DHT22;33273;52.254;7.988;2023-07-08T09:13:35;28.00;27.20
47532;DHT22;33273;52.254;7.988;2023-07-08T09:18:59;28.00;27.10
47532;DHT22;33273;52.254;7.988;2023-07-08T09:24:10;28.20;27.10
47532;DHT22;33273;52.254;7.988;2023-07-08T09:26:39;28.20;27.00
47532;DHT22;33273;52.254;7.988;2023-07-08T09:29:10;28.40;27.60
47532;DHT22;33273;52.254;7.988;2023-07-08T09:31:39;28.30;26.10
47532;DHT22;33273;52.254;7.988;2023-07-08T09:34:10;28.30;27.00
47532;DHT22;33273;52.254;7.988;2023-07-08T09:36:40;28.40;26.10
47532;DHT22;33273;52.254;7.988;2023-07-08T09:39:11;28.60;26.70
47532;DHT22;33273;52.254;7.988;2023-07-08T09:41:37;28.80;27.30
47532;DHT22;33273;52.254;7.988;2023-07-08T09:44:15;28.90;25.90
47532;DHT22;33273;52.254;7.988;2023-07-08T09:46:43;28.90;25.20
47532;DHT22;33273;52.254;7.988;2023-07-08T09:49:18;28.80;25.40
47532;DHT22;33273;52.254;7.988;2023-07-08T09:51:45;29.10;26.70
47532;DHT22;33273;52.254;7.988;2023-07-08T09:54:12;29.10;25.90
47532;DHT22;33273;52.254;7.988;2023-07-08T09:56:41;29.30;26.80
47532;DHT22;33273;52.254;7.988;2023-07-08T09:59:13;29.30;25.20
47532;DHT22;33273;52.254;7.988;2023-07-08T10:01:41;29.40;26.20
47532;DHT22;33273;52.254;7.988;2023-07-08T10:04:07;29.50;26.30
47532;DHT22;33273;52.254;7.988;2023-07-08T10:06:36;29.50;25.80
47532;DHT22;33273;52.254;7.988;2023-07-08T10:09:04;29.80;27.20
47532;DHT22;33273;52.254;7.988;2023-07-08T10:11:36;29.90;26.50
47532;DHT22;33273;52.254;7.988;2023-07-08T10:14:39;30.20;26.10
47532;DHT22;33273;52.254;7.988;2023-07-08T10:17:13;30.30;25.40
47532;DHT22;33273;52.254;7.988;2023-07-08T10:19:40;30.30;24.40
47532;DHT22;33273;52.254;7.988;2023-07-08T10:25:11;30.60;24.40
47532;DHT22;33273;52.254;7.988;2023-07-08T10:30:36;30.60;24.10
47532;DHT22;33273;52.254;7.988;2023-07-08T10:33:51;30.80;24.00
47532;DHT22;33273;52.254;7.988;2023-07-08T10:44:26;30.90;22.70
47532;DHT22;33273;52.254;7.988;2023-07-08T10:53:41;31.00;23.00
47532;DHT22;33273;52.254;7.988;2023-07-08T10:55:49;31.20;24.10
47532;DHT22;33273;52.254;7.988;2023-07-08T11:10:23;31.10;22.80
47532;DHT22;33273;52.254;7.988;2023-07-08T11:13:05;31.20;23.20
47532;DHT22;33273;52.254;7.988;2023-07-08T11:15:41;31.30;22.70
47532;DHT22;33273;52.254;7.988;2023-07-08T11:20:41;31.20;21.20
47532;DHT22;33273;52.254;7.988;2023-07-08T11:23:30;31.30;22.30
47532;DHT22;33273;52.254;7.988;2023-07-08T11:28:48;31.30;21.70
47532;DHT22;33273;52.254;7.988;2023-07-08T11:31:15;31.30;21.40
47532;DHT22;33273;52.254;7.988;2023-07-08T11:33:42;31.50;22.60
47532;DHT22;33273;52.254;7.988;2023-07-08T11:36:09;31.70;21.10
47532;DHT22;33273;52.254;7.988;2023-07-08T11:38:36;31.70;19.10
47532;DHT22;33273;52.254;7.988;2023-07-08T11:41:15;31.70;19.80
47532;DHT22;33273;52.254;7.988;2023-07-08T11:43:53;31.80;18.60
47532;DHT22;33273;52.254;7.988;2023-07-08T11:46:24;31.80;18.30
47532;DHT22;33273;52.254;7.988;2023-07-08T11:49:12;31.70;16.30
47532;DHT22;33273;52.254;7.988;2023-07-08T11:51:43;31.80;16.90
47532;DHT22;33273;52.254;7.988;2023-07-08T11:54:19;31.70;17.60
47532;DHT22;33273;52.254;7.988;2023-07-08T11:59:32;31.90;17.70
47532;DHT22;33273;52.254;7.988;2023-07-08T12:05:03;31.80;17.70
47532;DHT22;33273;52.254;7.988;2023-07-08T12:07:55;32.00;16.40
47532;DHT22;33273;52.254;7.988;2023-07-08T12:10:52;32.10;17.10
47532;DHT22;33273;52.254;7.988;2023-07-08T12:13:21;32.30;17.50
47532;DHT22;33273;52.254;7.988;2023-07-08T12:15:49;32.20;17.20
47532;DHT22;33273;52.254;7.988;2023-07-08T12:18:27;32.30;17.40
47532;DHT22;33273;52.254;7.988;2023-07-08T12:20:58;32.30;15.00
47532;DHT22;33273;52.254;7.988;2023-07-08T12:23:28;32.20;14.80
47532;DHT22;33273;52.254;7.988;2023-07-08T12:25:55;32.30;16.20
47532;DHT22;33273;52.254;7.988;2023-07-08T12:28:23;32.30;16.30
47532;DHT22;33273;52.254;7.988;2023-07-08T12:30:49;32.50;16.40
47532;DHT22;33273;52.254;7.988;2023-07-08T12:33:30;32.70;16.70
47532;DHT22;33273;52.254;7.988;2023-07-08T12:36:03;32.50;14.90
47532;DHT22;33273;52.254;7.988;2023-07-08T12:38:37;32.60;16.00
47532;DHT22;33273;52.254;7.988;2023-07-08T12:41:09;32.70;16.60
47532;DHT22;33273;52.254;7.988;2023-07-08T12:43:35;32.80;14.90
47532;DHT22;33273;52.254;7.988;2023-07-08T12:46:01;32.80;14.20
47532;DHT22;33273;52.254;7.988;2023-07-08T12:48:33;32.90;13.80
47532;DHT22;33273;52.254;7.988;2023-07-08T12:50:59;32.80;14.10
47532;DHT22;33273;52.254;7.988;2023-07-08T12:53:27;32.80;14.20
47532;DHT22;33273;52.254;7.988;2023-07-08T12:55:53;32.80;14.20
47532;DHT22;33273;52.254;7.988;2023-07-08T12:58:22;32.80;14.20
47532;DHT22;33273;52.254;7.988;2023-07-08T13:00:51;32.90;15.40
47532;DHT22;33273;52.254;7.988;2023-07-08T13:03:18;33.00;14.70
47532;DHT22;33273;52.254;7.988;2023-07-08T13:05:49;33.00;13.80
47532;DHT22;33273;52.254;7.988;2023-07-08T13:08:19;32.80;14.10
47532;DHT22;33273;52.254;7.988;2023-07-08T13:10:46;32.80;14.20
47532;DHT22;33273;52.254;7.988;2023-07-08T13:13:20;32.80;14.00
47532;DHT22;33273;52.254;7.988;2023-07-08T13:15:47;32.80;15.10
47532;DHT22;33273;52.254;7.988;2023-07-08T13:18:19;32.80;15.60
47532;DHT22;33273;52.254;7.988;2023-07-08T13:20:53;32.80;14.10
47532;DHT22;33273;52.254;7.988;2023-07-08T13:23:21;32.70;14.70
47532;DHT22;33273;52.254;7.988;2023-07-08T13:25:49;32.50;14.80
47532;DHT22;33273;52.254;7.988;2023-07-08T13:28:19;32.60;15.10
47532;DHT22;33273;52.254;7.988;2023-07-08T13:31:00;32.60;15.00
47532;DHT22;33273;52.254;7.988;2023-07-08T13:33:32;32.80;14.50
47532;DHT22;33273;52.254;7.988;2023-07-08T13:35:58;33.00;15.40
47532;DHT22;33273;52.254;7.988;2023-07-08T13:38:32;33.10;15.20
47532;DHT22;33273;52.254;7.988;2023-07-08T13:41:01;33.20;16.30
47532;DHT22;33273;52.254;7.988;2023-07-08T13:43:33;33.00;14.70
47532;DHT22;33273;52.254;7.988;2023-07-08T13:46:00;32.90;14.30
47532;DHT22;33273;52.254;7.988;2023-07-08T13:48:39;32.90;13.80
47532;DHT22;33273;52.254;7.988;2023-07-08T13:56:12;33.30;15.00
47532;DHT22;33273;52.254;7.988;2023-07-08T13:58:43;33.30;13.80
47532;DHT22;33273;52.254;7.988;2023-07-08T14:01:20;33.20;15.50
47532;DHT22;33273;52.254;7.988;2023-07-08T14:03:47;33.20;14.30
47532;DHT22;33273;52.254;7.988;2023-07-08T14:06:18;33.20;15.10
47532;DHT22;33273;52.254;7.988;2023-07-08T14:08:44;33.20;16.20
47532;DHT22;33273;52.254;7.988;2023-07-08T14:11:10;33.20;14.90
47532;DHT22;33273;52.254;7.988;2023-07-08T14:13:37;33.20;14.20
47532;DHT22;33273;52.254;7.988;2023-07-08T14:16:05;33.40;14.20
47532;DHT22;33273;52.254;7.988;2023-07-08T14:18:36;33.50;14.50
47532;DHT22;33273;52.254;7.988;2023-07-08T14:21:02;33.60;15.50
47532;DHT22;33273;52.254;7.988;2023-07-08T14:23:28;33.70;13.80
47532;DHT22;33273;52.254;7.988;2023-07-08T14:25:55;33.50;13.60
47532;DHT22;33273;52.254;7.988;2023-07-08T14:28:21;33.40;13.80
47532;DHT22;33273;52.254;7.988;2023-07-08T14:30:47;33.30;13.40
47532;DHT22;33273;52.254;7.988;2023-07-08T14:33:13;33.10;14.10
47532;DHT22;33273;52.254;7.988;2023-07-08T14:35:40;33.10;14.90
47532;DHT22;33273;52.254;7.988;2023-07-08T14:38:13;33.30;15.90
47532;DHT22;33273;52.254;7.988;2023-07-08T14:40:41;33.40;15.00
47532;DHT22;33273;52.254;7.988;2023-07-08T14:43:26;33.50;15.20
47532;DHT22;33273;52.254;7.988;2023-07-08T14:45:56;33.60;14.70
47532;DHT22;33273;52.254;7.988;2023-07-08T14:48:23;33.80;14.70
47532;DHT22;33273;52.254;7.988;2023-07-08T14:50:49;33.80;13.40
47532;DHT22;33273;52.254;7.988;2023-07-08T14:53:16;33.70;14.50
47532;DHT22;33273;52.254;7.988;2023-07-08T14:55:44;33.40;14.50
47532;DHT22;33273;52.254;7.988;2023-07-08T15:00:46;32.90;14.70
47532;DHT22;33273;52.254;7.988;2023-07-08T15:03:12;32.80;14.40
47532;DHT22;33273;52.254;7.988;2023-07-08T15:05:37;32.90;14.40
47532;DHT22;33273;52.254;7.988;2023-07-08T15:08:03;32.80;14.70
47532;DHT22;33273;52.254;7.988;2023-07-08T15:10:31;32.60;13.90
47532;DHT22;33273;52.254;7.988;2023-07-08T15:12:59;32.80;14.80
47532;DHT22;33273;52.254;7.988;2023-07-08T15:15:31;32.70;14.60
47532;DHT22;33273;52.254;7.988;2023-07-08T15:17:58;32.70;14.50
47532;DHT22;33273;52.254;7.988;2023-07-08T15:20:25;32.70;14.70
47532;DHT22;33273;52.254;7.988;2023-07-08T15:22:51;32.70;14.40
47532;DHT22;33273;52.254;7.988;2023-07-08T15:25:17;32.70;14.30
47532;DHT22;33273;52.254;7.988;2023-07-08T15:27:52;32.70;14.40
47532;DHT22;33273;52.254;7.988;2023-07-08T15:30:27;32.60;14.40
47532;DHT22;33273;52.254;7.988;2023-07-08T15:32:54;32.60;14.90
47532;DHT22;33273;52.254;7.988;2023-07-08T15:35:22;32.60;15.30
47532;DHT22;33273;52.254;7.988;2023-07-08T15:37:50;32.70;15.80
47532;DHT22;33273;52.254;7.988;2023-07-08T15:40:18;32.90;15.60
47532;DHT22;33273;52.254;7.988;2023-07-08T15:42:49;33.00;17.30
47532;DHT22;33273;52.254;7.988;2023-07-08T15:45:33;33.10;16.90
47532;DHT22;33273;52.254;7.988;2023-07-08T15:48:00;33.20;15.90
47532;DHT22;33273;52.254;7.988;2023-07-08T15:50:26;33.20;16.50
47532;DHT22;33273;52.254;7.988;2023-07-08T15:52:58;33.20;15.90
47532;DHT22;33273;52.254;7.988;2023-07-08T15:55:30;33.20;15.20
47532;DHT22;33273;52.254;7.988;2023-07-08T15:58:03;33.10;14.90
47532;DHT22;33273;52.254;7.988;2023-07-08T16:00:33;33.10;16.30
47532;DHT22;33273;52.254;7.988;2023-07-08T16:03:27;33.00;15.70
47532;DHT22;33273;52.254;7.988;2023-07-08T16:05:52;33.00;15.70
47532;DHT22;33273;52.254;7.988;2023-07-08T16:08:18;33.10;16.10
47532;DHT22;33273;52.254;7.988;2023-07-08T16:10:51;33.10;15.10
47532;DHT22;33273;52.254;7.988;2023-07-08T16:13:25;33.20;15.90
47532;DHT22;33273;52.254;7.988;2023-07-08T16:15:52;33.20;15.60
47532;DHT22;33273;52.254;7.988;2023-07-08T16:18:18;33.20;16.10
47532;DHT22;33273;52.254;7.988;2023-07-08T16:20:45;33.20;17.20
47532;DHT22;33273;52.254;7.988;2023-07-08T16:23:11;33.00;16.10
47532;DHT22;33273;52.254;7.988;2023-07-08T16:25:38;33.00;16.80
47532;DHT22;33273;52.254;7.988;2023-07-08T16:28:05;32.80;15.70
47532;DHT22;33273;52.254;7.988;2023-07-08T16:30:32;32.70;15.50
47532;DHT22;33273;52.254;7.988;2023-07-08T16:32:58;32.60;15.30
47532;DHT22;33273;52.254;7.988;2023-07-08T16:35:24;32.50;15.10
47532;DHT22;33273;52.254;7.988;2023-07-08T16:37:51;32.50;15.20
47532;DHT22;33273;52.254;7.988;2023-07-08T16:40:22;32.30;14.60
47532;DHT22;33273;52.254;7.988;2023-07-08T16:42:51;32.30;15.60
47532;DHT22;33273;52.254;7.988;2023-07-08T16:45:19;32.20;16.30
47532;DHT22;33273;52.254;7.988;2023-07-08T16:47:46;32.30;16.00
47532;DHT22;33273;52.254;7.988;2023-07-08T16:50:15;32.20;17.20
47532;DHT22;33273;52.254;7.988;2023-07-08T16:52:41;32.10;17.70